createdAt,value
2022-10-19T00:01:43.816Z,91932.78
2022-10-19T00:04:10.510Z,91925.94
2022-10-19T00:06:37.482Z,91925.16
2022-10-19T00:09:08.787Z,91916.91
2022-10-19T00:11:38.426Z,91924.09
2022-10-19T00:14:06.683Z,91919.19
2022-10-19T00:16:37.609Z,91914.31
2022-10-19T00:19:08.174Z,91902.88
2022-10-19T00:21:35.396Z,91905.88
2022-10-19T00:24:02.086Z,91901.94
2022-10-19T00:26:28.752Z,91894.03
2022-10-19T00:28:56.262Z,91893.56
2022-10-19T00:31:23.380Z,91887.19
2022-10-19T00:33:50.527Z,91883.00
2022-10-19T00:36:28.304Z,91882.50
2022-10-19T00:38:56.229Z,91882.41
2022-10-19T00:41:25.917Z,91876.50
2022-10-19T00:44:27.385Z,91877.53
2022-10-19T00:46:56.970Z,91866.09
2022-10-19T00:49:27.385Z,91870.22
2022-10-19T00:51:57.198Z,91864.00
2022-10-19T00:54:25.390Z,91861.25
2022-10-19T00:56:55.029Z,91864.56
2022-10-19T00:59:24.892Z,91859.88
2022-10-19T01:01:53.096Z,91833.03
2022-10-19T01:04:24.930Z,91839.44
2022-10-19T01:06:53.553Z,91852.50
2022-10-19T01:09:20.601Z,91843.97
2022-10-19T01:12:21.708Z,91843.97
2022-10-19T01:14:48.286Z,91841.38
2022-10-19T01:17:20.522Z,91839.41
2022-10-19T01:20:22.046Z,91831.44
2022-10-19T01:22:54.720Z,91841.06
2022-10-19T01:25:40.028Z,91835.13
2022-10-19T01:28:15.475Z,91835.38
2022-10-19T01:31:03.970Z,91830.78
2022-10-19T01:33:33.746Z,91826.78
2022-10-19T01:36:03.364Z,91822.56
2022-10-19T01:38:38.374Z,91823.16
2022-10-19T01:41:24.698Z,91802.84
2022-10-19T01:44:11.495Z,91805.75
2022-10-19T01:46:56.862Z,91801.78
2022-10-19T01:49:23.401Z,91798.97
2022-10-19T01:51:55.617Z,91792.19
2022-10-19T01:54:26.226Z,91793.88
2022-10-19T01:56:55.134Z,91790.84
2022-10-19T01:59:23.607Z,91785.66
2022-10-19T02:01:53.601Z,91781.09
2022-10-19T02:04:23.002Z,91779.97
2022-10-19T02:06:52.667Z,91774.66
2022-10-19T02:09:20.264Z,91767.75
2022-10-19T02:11:53.355Z,91777.09
2022-10-19T02:14:28.795Z,91764.47
2022-10-19T02:17:02.744Z,91766.28
2022-10-19T02:19:30.064Z,91763.28
2022-10-19T02:21:57.262Z,91758.84
2022-10-19T02:24:24.026Z,91766.47
2022-10-19T02:26:51.577Z,91760.81
2022-10-19T02:29:18.489Z,91743.63
2022-10-19T02:31:45.540Z,91745.59
2022-10-19T02:34:13.298Z,91744.19
2022-10-19T02:36:40.069Z,91753.34
2022-10-19T02:39:07.534Z,91753.94
2022-10-19T02:41:39.627Z,91754.38
2022-10-19T02:44:14.483Z,91750.28
2022-10-19T02:46:50.666Z,91760.88
2022-10-19T02:49:18.191Z,91751.91
2022-10-19T02:52:03.967Z,91753.13
2022-10-19T02:54:32.299Z,91751.03
2022-10-19T02:56:59.281Z,91752.38
2022-10-19T02:59:27.054Z,91747.47
2022-10-19T03:01:53.721Z,91748.66
2022-10-19T03:04:20.385Z,91748.19
2022-10-19T03:06:47.265Z,91751.53
2022-10-19T03:09:13.931Z,91743.16
2022-10-19T03:11:40.649Z,91736.53
2022-10-19T03:14:07.303Z,91750.88
2022-10-19T03:16:34.087Z,91742.22
2022-10-19T03:19:00.738Z,91743.78
2022-10-19T03:21:27.366Z,91750.03
2022-10-19T03:23:56.369Z,91734.88
2022-10-19T03:26:22.997Z,91739.19
2022-10-19T03:28:49.659Z,91721.34
2022-10-19T03:31:16.386Z,91735.97
2022-10-19T03:33:43.137Z,91735.50
2022-10-19T03:36:37.874Z,91730.31
2022-10-19T03:39:08.133Z,91735.06
2022-10-19T03:41:36.513Z,91731.69
2022-10-19T03:44:04.177Z,91732.41
2022-10-19T03:46:31.194Z,91724.06
2022-10-19T03:48:58.302Z,91720.22
2022-10-19T03:51:27.782Z,91730.41
2022-10-19T03:53:58.246Z,91727.50
2022-10-19T03:56:26.494Z,91730.97
2022-10-19T03:58:55.081Z,91724.91
2022-10-19T04:01:27.816Z,91732.19
2022-10-19T04:04:02.357Z,91715.97
2022-10-19T04:06:34.920Z,91718.00
2022-10-19T04:09:03.318Z,91706.59
2022-10-19T04:11:31.037Z,91711.59
2022-10-19T04:13:58.971Z,91692.69
2022-10-19T04:16:27.831Z,91689.34
2022-10-19T04:18:55.210Z,91704.25
2022-10-19T04:21:24.756Z,91706.53
2022-10-19T04:23:53.178Z,91703.50
2022-10-19T04:26:20.957Z,91705.44
2022-10-19T04:28:47.641Z,91700.88
2022-10-19T04:31:14.786Z,91693.88
2022-10-19T04:33:41.671Z,91692.97
2022-10-19T04:36:10.753Z,91691.16
2022-10-19T04:38:37.725Z,91696.31
2022-10-19T04:41:06.757Z,91694.63
2022-10-19T04:43:33.491Z,91688.84
2022-10-19T04:46:08.326Z,91680.19
2022-10-19T04:48:37.454Z,91686.66
2022-10-19T04:51:04.579Z,91669.59
2022-10-19T04:53:32.405Z,91689.41
2022-10-19T04:55:59.492Z,91668.53
2022-10-19T04:58:27.503Z,91683.75
2022-10-19T05:00:54.533Z,91680.88
2022-10-19T05:03:21.220Z,91680.41
2022-10-19T05:05:47.839Z,91669.31
2022-10-19T05:08:14.510Z,91678.75
2022-10-19T05:10:44.224Z,91676.63
2022-10-19T05:13:14.124Z,91680.56
2022-10-19T05:15:40.743Z,91674.06
2022-10-19T05:18:07.501Z,91671.47
2022-10-19T05:20:34.187Z,91678.00
2022-10-19T05:23:06.173Z,91667.94
2022-10-19T05:25:34.119Z,91656.84
2022-10-19T05:28:00.726Z,91680.00
2022-10-19T05:30:27.476Z,91672.84
2022-10-19T05:32:54.121Z,91671.19
2022-10-19T05:35:22.607Z,91673.47
2022-10-19T05:37:54.558Z,91669.94
2022-10-19T05:40:21.280Z,91669.94
2022-10-19T05:42:47.954Z,91661.56
2022-10-19T05:45:14.663Z,91667.22
2022-10-19T05:47:41.334Z,91669.31
2022-10-19T05:50:08.373Z,91657.69
2022-10-19T05:52:35.083Z,91658.72
2022-10-19T05:55:01.720Z,91658.41
2022-10-19T05:57:28.424Z,91659.06
2022-10-19T05:59:58.377Z,91655.75
2022-10-19T06:02:25.009Z,91648.81
2022-10-19T06:04:51.711Z,91656.03
2022-10-19T06:07:18.536Z,91647.34
2022-10-19T06:09:46.097Z,91645.50
2022-10-19T06:12:14.039Z,91648.59
2022-10-19T06:14:42.599Z,91642.09
2022-10-19T06:17:09.400Z,91640.31
2022-10-19T06:19:36.312Z,91641.94
2022-10-19T06:22:02.987Z,91645.22
2022-10-19T06:24:29.675Z,91639.66
2022-10-19T06:26:56.383Z,91636.41
2022-10-19T06:29:23.018Z,91636.13
2022-10-19T06:31:49.685Z,91641.72
2022-10-19T06:34:16.439Z,91647.03
2022-10-19T06:36:43.095Z,91649.00
2022-10-19T06:39:09.985Z,91643.09
2022-10-19T06:41:36.708Z,91647.44
2022-10-19T06:44:03.388Z,91636.31
2022-10-19T06:46:30.647Z,91652.69
2022-10-19T06:49:00.081Z,91652.09
2022-10-19T06:51:34.037Z,91648.53
2022-10-19T06:54:01.003Z,91646.69
2022-10-19T06:56:27.748Z,91649.97
2022-10-19T06:58:55.110Z,91644.44
2022-10-19T07:01:22.213Z,91646.47
2022-10-19T07:03:51.367Z,91654.84
2022-10-19T07:06:19.667Z,91649.84
2022-10-19T07:08:46.560Z,91639.84
2022-10-19T07:11:17.644Z,91644.09
2022-10-19T07:13:44.337Z,91638.56
2022-10-19T07:16:16.150Z,91636.34
2022-10-19T07:18:47.255Z,91629.69
2022-10-19T07:21:15.875Z,91627.38
2022-10-19T07:23:44.375Z,91633.00
2022-10-19T07:26:23.997Z,91626.09
2022-10-19T07:28:51.125Z,91633.81
2022-10-19T07:31:20.658Z,91632.44
2022-10-19T07:33:48.365Z,91627.31
2022-10-19T07:36:15.148Z,91622.50
2022-10-19T07:38:41.810Z,91626.69
2022-10-19T07:41:12.858Z,91624.69
2022-10-19T07:43:40.685Z,91622.88
2022-10-19T07:46:11.625Z,91618.00
2022-10-19T07:48:38.264Z,91596.06
2022-10-19T07:51:07.239Z,91611.44
2022-10-19T07:53:35.200Z,91611.38
2022-10-19T07:56:10.340Z,91608.94
2022-10-19T07:58:37.949Z,91608.28
2022-10-19T08:01:16.914Z,91607.88
2022-10-19T08:04:31.739Z,91600.09
2022-10-19T08:06:31.730Z,91603.88
2022-10-19T08:08:58.584Z,91598.56
2022-10-19T08:11:32.979Z,91597.03
2022-10-19T08:14:00.395Z,91577.00
2022-10-19T08:16:32.940Z,91592.56
2022-10-19T08:19:05.792Z,91586.25
2022-10-19T08:21:32.905Z,91581.28
2022-10-19T08:24:00.227Z,91582.31
2022-10-19T08:26:31.795Z,91581.13
2022-10-19T08:29:03.195Z,91576.25
2022-10-19T08:31:30.415Z,91578.09
2022-10-19T08:33:57.340Z,91570.81
2022-10-19T08:36:24.421Z,91552.03
2022-10-19T08:38:51.175Z,91554.75
2022-10-19T08:41:36.820Z,91559.22
2022-10-19T08:44:37.542Z,91562.13
2022-10-19T08:47:06.111Z,91553.69
2022-10-19T08:49:34.783Z,91536.09
2022-10-19T08:52:05.954Z,91548.41
2022-10-19T08:54:51.012Z,91545.66
2022-10-19T08:57:38.891Z,91544.50
2022-10-19T09:00:14.620Z,91536.75
2022-10-19T09:03:09.880Z,91534.84
2022-10-19T09:06:01.723Z,91539.72
2022-10-19T09:08:28.608Z,91538.41
2022-10-19T09:10:55.577Z,91532.16
2022-10-19T09:13:29.207Z,91531.56
2022-10-19T09:16:06.470Z,91530.81
2022-10-19T09:18:35.216Z,91528.31
2022-10-19T09:21:09.421Z,91525.63
2022-10-19T09:23:39.224Z,91521.34
2022-10-19T09:26:28.516Z,91523.63
2022-10-19T09:29:00.204Z,91524.72
2022-10-19T09:31:40.326Z,91524.28
2022-10-19T09:34:33.565Z,91514.09
2022-10-19T09:37:00.677Z,91508.91
2022-10-19T09:39:29.927Z,91511.19
2022-10-19T09:42:06.604Z,91505.16
2022-10-19T09:44:33.311Z,91504.03
2022-10-19T09:47:29.050Z,91499.97
2022-10-19T09:50:18.262Z,91490.66
2022-10-19T09:52:50.479Z,91489.13
2022-10-19T09:55:17.122Z,91494.78
2022-10-19T09:57:49.682Z,91479.06
2022-10-19T10:00:23.060Z,91472.22
2022-10-19T10:02:54.984Z,91481.66
2022-10-19T10:05:34.469Z,91472.84
2022-10-19T10:08:01.599Z,91470.44
2022-10-19T10:10:34.644Z,91457.09
2022-10-19T10:13:01.832Z,91457.91
2022-10-19T10:15:44.455Z,91453.09
2022-10-19T10:18:18.829Z,91455.69
2022-10-19T10:21:06.906Z,91449.19
2022-10-19T10:23:36.621Z,91445.75
2022-10-19T10:26:06.222Z,91445.44
2022-10-19T10:28:32.862Z,91434.47
2022-10-19T10:31:06.155Z,91442.41
2022-10-19T10:36:26.840Z,91434.75
2022-10-19T10:39:04.096Z,91432.91
2022-10-19T10:41:36.685Z,91428.69
2022-10-19T10:44:08.641Z,91422.00
2022-10-19T10:46:58.191Z,91418.88
2022-10-19T10:49:29.061Z,91406.81
2022-10-19T10:52:06.336Z,91418.53
2022-10-19T10:54:33.508Z,91401.06
2022-10-19T10:57:11.706Z,91397.53
2022-10-19T11:00:12.443Z,91392.75
2022-10-19T11:03:00.809Z,91391.88
2022-10-19T11:05:33.554Z,91388.19
2022-10-19T11:08:20.091Z,91390.63
2022-10-19T11:10:57.230Z,91378.56
2022-10-19T11:13:39.725Z,91379.78
2022-10-19T11:16:16.903Z,91379.78
2022-10-19T11:19:02.711Z,91366.78
2022-10-19T11:21:35.375Z,91370.81
2022-10-19T11:24:50.288Z,91363.94
2022-10-19T11:27:38.770Z,91327.25
2022-10-19T11:30:10.739Z,91343.66
2022-10-19T11:32:46.668Z,91366.88
2022-10-19T11:35:28.790Z,91362.63
2022-10-19T11:38:18.761Z,91363.09
2022-10-19T11:41:19.585Z,91361.13
2022-10-19T11:44:04.706Z,91348.53
2022-10-19T11:46:43.405Z,91339.44
2022-10-19T11:49:39.561Z,91352.22
2022-10-19T11:52:37.937Z,91357.28
2022-10-19T11:55:28.415Z,91354.47
2022-10-19T11:58:05.709Z,91348.34
2022-10-19T12:00:41.830Z,91334.50
2022-10-19T12:03:22.724Z,91359.59
2022-10-19T12:06:09.395Z,91349.44
2022-10-19T12:08:56.195Z,91349.97
2022-10-19T12:11:44.912Z,91343.94
2022-10-19T12:14:17.591Z,91336.75
2022-10-19T12:16:52.009Z,91349.63
2022-10-19T12:19:42.995Z,91334.31
2022-10-19T12:22:19.292Z,91334.78
2022-10-19T12:24:46.594Z,91351.38
2022-10-19T12:27:16.600Z,91349.59
2022-10-19T12:29:48.051Z,91347.47
2022-10-19T12:32:17.580Z,91349.78
2022-10-19T12:34:46.926Z,91348.31
2022-10-19T12:37:13.595Z,91340.28
2022-10-19T12:40:04.906Z,91342.50
2022-10-19T12:43:12.544Z,91339.28
2022-10-19T12:46:27.262Z,91338.81
2022-10-19T12:49:27.900Z,91348.63
2022-10-19T12:51:57.122Z,91343.56
2022-10-19T12:54:32.626Z,91342.97
2022-10-19T12:57:01.942Z,91341.75
2022-10-19T12:59:36.570Z,91354.19
2022-10-19T13:02:06.694Z,91342.97
2022-10-19T13:04:35.972Z,91342.91
2022-10-19T13:07:10.983Z,91336.56
2022-10-19T13:09:41.844Z,91334.63
2022-10-19T13:12:21.618Z,91338.53
2022-10-19T13:14:59.128Z,91344.91
2022-10-19T13:17:36.604Z,91343.13
2022-10-19T13:20:15.139Z,91338.38
2022-10-19T13:22:42.916Z,91334.63
2022-10-19T13:25:21.985Z,91337.56
2022-10-19T13:27:52.812Z,91324.03
2022-10-19T13:30:44.083Z,91344.19
2022-10-19T13:33:26.054Z,91334.53
2022-10-19T13:36:13.279Z,91330.59
2022-10-19T13:38:58.524Z,91330.84
2022-10-19T13:41:27.312Z,91333.31
2022-10-19T13:44:03.355Z,91340.34
2022-10-19T13:46:29.950Z,91337.56
2022-10-19T13:49:21.329Z,91336.41
2022-10-19T13:52:25.501Z,91338.44
2022-10-19T13:55:23.463Z,91344.13
2022-10-19T13:58:13.875Z,91346.16
2022-10-19T14:01:05.783Z,91338.00
2022-10-19T14:03:41.362Z,91338.59
2022-10-19T14:06:36.158Z,91341.75
2022-10-19T14:09:15.139Z,91343.47
2022-10-19T14:11:45.290Z,91337.84
2022-10-19T14:14:11.886Z,91337.44
2022-10-19T14:16:52.862Z,91330.94
2022-10-19T14:19:29.324Z,91323.88
2022-10-19T14:21:59.946Z,91315.75
2022-10-19T14:24:33.032Z,91315.88
2022-10-19T14:27:02.028Z,91321.31
2022-10-19T14:29:28.739Z,91325.19
2022-10-19T14:31:55.475Z,91324.22
2022-10-19T14:34:22.349Z,91328.38
2022-10-19T14:36:49.975Z,91329.56
2022-10-19T14:39:31.280Z,91327.06
2022-10-19T14:42:04.118Z,91337.31
2022-10-19T14:44:44.266Z,91346.44
2022-10-19T14:47:27.357Z,91350.00
2022-10-19T14:49:54.300Z,91354.00
2022-10-19T14:52:33.635Z,91346.16
2022-10-19T14:55:05.510Z,91343.31
2022-10-19T14:57:35.981Z,91361.09
2022-10-19T15:00:06.215Z,91364.66
2022-10-19T15:02:38.728Z,91355.72
2022-10-19T15:05:14.624Z,91371.75
2022-10-19T15:07:43.463Z,91358.50
2022-10-19T15:10:39.159Z,91373.78
2022-10-19T15:13:07.562Z,91374.78
2022-10-19T15:15:36.123Z,91381.75
2022-10-19T15:18:05.847Z,91379.47
2022-10-19T15:20:49.375Z,91379.06
2022-10-19T15:23:36.865Z,91388.59
2022-10-19T15:26:32.925Z,91397.28
2022-10-19T15:29:29.399Z,91386.19
2022-10-19T15:31:59.055Z,91393.28
2022-10-19T15:34:29.739Z,91394.22
2022-10-19T15:36:59.384Z,91400.66
2022-10-19T15:39:42.094Z,91402.03
2022-10-19T15:42:44.454Z,91407.13
2022-10-19T15:45:34.102Z,91410.97
2022-10-19T15:48:24.666Z,91413.31
2022-10-19T15:50:52.153Z,91392.25
2022-10-19T15:53:20.812Z,91426.91
2022-10-19T15:55:47.943Z,91426.94
2022-10-19T16:01:14.995Z,91433.22
2022-10-19T16:03:41.702Z,91440.81
2022-10-19T16:06:08.676Z,91449.13
2022-10-19T16:08:35.398Z,91453.34
2022-10-19T16:11:04.175Z,91451.13
2022-10-19T16:13:31.189Z,91453.38
2022-10-19T16:16:11.189Z,91453.06
2022-10-19T16:18:38.789Z,91460.59
2022-10-19T16:21:05.685Z,91457.22
2022-10-19T16:23:37.782Z,91457.25
2022-10-19T16:26:07.925Z,91467.41
2022-10-19T16:28:34.659Z,91461.41
2022-10-19T16:31:01.345Z,91479.06
2022-10-19T16:33:28.102Z,91472.25
2022-10-19T16:35:54.766Z,91485.44
2022-10-19T16:38:21.383Z,91486.16
2022-10-19T16:40:48.140Z,91489.91
2022-10-19T16:43:14.875Z,91484.94
2022-10-19T16:45:45.005Z,91486.03
2022-10-19T16:48:14.506Z,91498.84
2022-10-19T16:50:41.206Z,91485.94
2022-10-19T16:53:10.465Z,91503.94
2022-10-19T16:55:38.093Z,91499.31
2022-10-19T16:58:04.929Z,91506.03
2022-10-19T17:00:32.296Z,91511.09
2022-10-19T17:02:59.116Z,91500.31
2022-10-19T17:05:25.802Z,91513.13
2022-10-19T17:07:52.564Z,91521.94
2022-10-19T17:10:19.343Z,91521.88
2022-10-19T17:12:46.018Z,91526.28
2022-10-19T17:17:59.944Z,91518.00
2022-10-19T17:20:26.722Z,91521.19
2022-10-19T17:22:53.471Z,91524.34
2022-10-19T17:25:20.252Z,91529.91
2022-10-19T17:27:50.970Z,91520.03
2022-10-19T17:30:17.998Z,91522.59
2022-10-19T17:32:44.873Z,91525.88
2022-10-19T17:35:11.605Z,91526.06
2022-10-19T17:37:38.398Z,91534.19
2022-10-19T17:40:05.882Z,91513.72
2022-10-19T17:42:36.463Z,91529.03
2022-10-19T17:45:04.145Z,91520.41
2022-10-19T17:47:30.790Z,91530.19
2022-10-19T17:49:57.532Z,91517.94
2022-10-19T17:52:24.164Z,91518.72
2022-10-19T17:55:11.049Z,91524.19
2022-10-19T17:57:37.834Z,91528.13
2022-10-19T18:00:07.083Z,91526.63
2022-10-19T18:02:35.630Z,91526.41
2022-10-19T18:05:04.689Z,91516.88
2022-10-19T18:07:32.313Z,91528.09
2022-10-19T18:09:59.107Z,91533.75
2022-10-19T18:12:26.769Z,91532.72
2022-10-19T18:14:53.536Z,91529.56
2022-10-19T18:17:24.063Z,91530.06
2022-10-19T18:19:53.681Z,91529.88
2022-10-19T18:22:21.885Z,91529.16
2022-10-19T18:24:49.635Z,91521.16
2022-10-19T18:27:16.274Z,91525.69
2022-10-19T18:29:43.750Z,91528.06
2022-10-19T18:32:11.693Z,91526.63
2022-10-19T18:34:38.763Z,91522.50
2022-10-19T18:37:05.622Z,91535.56
2022-10-19T18:39:32.325Z,91521.91
2022-10-19T18:41:59.000Z,91513.81
2022-10-19T18:44:27.852Z,91509.69
2022-10-19T18:46:56.482Z,91521.38
2022-10-19T18:49:24.945Z,91515.59
2022-10-19T18:51:55.162Z,91510.19
2022-10-19T18:54:23.168Z,91512.16
2022-10-19T18:56:49.970Z,91513.88
2022-10-19T18:59:16.849Z,91510.38
2022-10-19T19:01:43.816Z,91505.00
2022-10-19T19:04:10.995Z,91521.03
2022-10-19T19:06:38.683Z,91507.47
2022-10-19T19:09:08.928Z,91521.78
2022-10-19T19:11:38.245Z,91527.78
2022-10-19T19:14:13.731Z,91525.78
2022-10-19T19:16:41.314Z,91532.53
2022-10-19T19:19:08.928Z,91530.94
2022-10-19T19:21:36.696Z,91541.75
2022-10-19T19:24:05.592Z,91537.56
2022-10-19T19:26:35.604Z,91530.72
2022-10-19T19:29:02.691Z,91536.66
2022-10-19T19:31:29.643Z,91543.50
2022-10-19T19:33:59.029Z,91541.75
2022-10-19T19:36:25.740Z,91542.53
2022-10-19T19:38:53.963Z,91550.91
2022-10-19T19:41:20.761Z,91546.41
2022-10-19T19:43:47.606Z,91549.41
2022-10-19T19:46:17.423Z,91534.00
2022-10-19T19:48:47.067Z,91553.09
2022-10-19T19:51:16.862Z,91566.31
2022-10-19T19:53:44.402Z,91561.13
2022-10-19T19:56:12.723Z,91562.72
2022-10-19T19:58:41.058Z,91560.09
2022-10-19T20:01:12.295Z,91561.25
2022-10-19T20:03:40.815Z,91568.84
2022-10-19T20:06:07.707Z,91565.59
2022-10-19T20:08:36.317Z,91560.22
2022-10-19T20:11:09.119Z,91568.81
2022-10-19T20:13:36.437Z,91568.91
2022-10-19T20:16:33.468Z,91562.69
2022-10-19T20:19:11.892Z,91571.53
2022-10-19T20:21:39.310Z,91577.75
2022-10-19T20:24:06.955Z,91569.66
2022-10-19T20:26:33.728Z,91562.28
2022-10-19T20:29:02.752Z,91570.38
2022-10-19T20:31:31.568Z,91561.09
2022-10-19T20:33:58.342Z,91565.75
2022-10-19T20:36:26.243Z,91571.84
2022-10-19T20:38:57.602Z,91577.28
2022-10-19T20:41:26.617Z,91575.34
2022-10-19T20:43:54.378Z,91577.00
2022-10-19T20:46:23.935Z,91572.72
2022-10-19T20:48:51.462Z,91563.50
2022-10-19T20:51:31.977Z,91572.56
2022-10-19T20:54:02.266Z,91576.00
2022-10-19T20:56:32.169Z,91564.59
2022-10-19T20:59:04.559Z,91573.81
2022-10-19T21:01:33.964Z,91577.03
2022-10-19T21:04:03.372Z,91574.84
2022-10-19T21:06:32.644Z,91571.31
2022-10-19T21:09:00.717Z,91570.91
2022-10-19T21:11:30.021Z,91571.97
2022-10-19T21:13:59.268Z,91584.47
2022-10-19T21:16:30.422Z,91587.34
2022-10-19T21:18:57.487Z,91587.22
2022-10-19T21:21:27.325Z,91590.09
2022-10-19T21:23:57.107Z,91587.06
2022-10-19T21:26:28.699Z,91571.69
2022-10-19T21:28:55.888Z,91589.91
2022-10-19T21:31:24.675Z,91570.94
2022-10-19T21:33:51.832Z,91593.34
2022-10-19T21:36:19.755Z,91591.69
2022-10-19T21:38:46.786Z,91591.06
2022-10-19T21:41:16.360Z,91588.25
2022-10-19T21:43:43.103Z,91591.53
2022-10-19T21:46:15.255Z,91584.47
2022-10-19T21:48:42.729Z,91577.44
2022-10-19T21:51:40.776Z,91589.69
2022-10-19T21:56:37.445Z,91579.56
2022-10-19T21:59:04.534Z,91590.22
2022-10-19T22:01:37.300Z,91560.00
2022-10-19T22:04:08.634Z,91584.25
2022-10-19T22:06:36.586Z,91588.88
2022-10-19T22:09:06.375Z,91594.66
2022-10-19T22:11:33.253Z,91585.09
2022-10-19T22:14:02.381Z,91587.06
2022-10-19T22:16:30.634Z,91593.88
2022-10-19T22:18:57.372Z,91585.75
2022-10-19T22:21:27.873Z,91585.31
2022-10-19T22:24:00.792Z,91593.03
2022-10-19T22:26:33.284Z,91599.00
2022-10-19T22:29:01.055Z,91577.66
2022-10-19T22:31:29.737Z,91596.97
2022-10-19T22:33:56.605Z,91591.66
2022-10-19T22:36:24.775Z,91592.59
2022-10-19T22:38:51.561Z,91581.34
2022-10-19T22:41:18.201Z,91590.84
2022-10-19T22:43:44.878Z,91590.09
2022-10-19T22:46:11.574Z,91587.47
2022-10-19T22:48:38.192Z,91593.53
2022-10-19T22:51:05.361Z,91582.28
2022-10-19T22:53:32.058Z,91588.97
2022-10-19T22:55:58.717Z,91582.94
2022-10-19T22:58:25.417Z,91591.38
2022-10-19T23:01:03.566Z,91593.75
2022-10-19T23:03:30.428Z,91592.59
2022-10-19T23:05:57.182Z,91586.72
2022-10-19T23:08:24.158Z,91588.66
2022-10-19T23:10:50.899Z,91589.41
2022-10-19T23:13:17.688Z,91585.75
2022-10-19T23:15:45.330Z,91581.72
2022-10-19T23:18:12.844Z,91580.72
2022-10-19T23:20:39.610Z,91592.22
2022-10-19T23:23:06.418Z,91596.97
2022-10-19T23:25:33.223Z,91597.91
2022-10-19T23:28:00.022Z,91607.78
2022-10-19T23:30:26.967Z,91593.88
2022-10-19T23:32:53.594Z,91594.00
2022-10-19T23:35:20.292Z,91599.75
2022-10-19T23:37:46.895Z,91600.50
2022-10-19T23:40:13.604Z,91611.25
2022-10-19T23:42:40.230Z,91602.13
2022-10-19T23:45:07.511Z,91605.28
2022-10-19T23:47:34.518Z,91599.22
2022-10-19T23:50:01.580Z,91586.22
2022-10-19T23:52:28.208Z,91606.50
2022-10-19T23:54:54.953Z,91598.56
2022-10-19T23:57:21.850Z,91594.19
2022-10-19T23:59:48.488Z,91594.44
